createdAt,value
2017-09-15T00:00:00.497Z,1021.26
2017-09-15T00:01:01.134Z,1021.26
2017-09-15T00:02:01.774Z,1021.27
2017-09-15T00:03:02.458Z,1021.30
2017-09-15T00:04:03.045Z,1021.31
2017-09-15T00:05:03.681Z,1021.32
2017-09-15T00:06:04.313Z,1021.34
2017-09-15T00:07:04.951Z,1021.39
2017-09-15T00:08:05.738Z,1021.40
2017-09-15T00:09:06.375Z,1021.33
2017-09-15T00:10:07.011Z,1021.38
2017-09-15T00:11:07.645Z,1021.34
2017-09-15T00:12:08.279Z,1021.39
2017-09-15T00:13:08.919Z,1021.31
2017-09-15T00:14:09.555Z,1021.31
2017-09-15T00:15:10.191Z,1021.41
2017-09-15T00:16:11.027Z,1021.36
2017-09-15T00:17:11.660Z,1021.42
2017-09-15T00:18:12.298Z,1021.39
2017-09-15T00:19:12.931Z,1021.34
2017-09-15T00:20:13.570Z,1021.27
2017-09-15T00:21:14.212Z,1021.20
2017-09-15T00:22:14.839Z,1021.30
2017-09-15T00:23:15.482Z,1021.28
2017-09-15T00:24:16.309Z,1021.31
2017-09-15T00:25:16.945Z,1021.29
2017-09-15T00:26:17.581Z,1021.26
2017-09-15T00:27:18.218Z,1021.31
2017-09-15T00:28:18.856Z,1021.28
2017-09-15T00:29:19.543Z,1021.26
2017-09-15T00:30:20.181Z,1021.28
2017-09-15T00:31:20.817Z,1021.27
2017-09-15T00:32:21.454Z,1021.25
2017-09-15T00:33:22.291Z,1021.25
2017-09-15T00:34:22.927Z,1021.24
2017-09-15T00:35:23.567Z,1021.30
2017-09-15T00:36:24.202Z,1021.24
2017-09-15T00:37:24.839Z,1021.15
2017-09-15T00:38:25.475Z,1021.19
2017-09-15T00:39:26.110Z,1021.19
2017-09-15T00:40:26.748Z,1021.26
2017-09-15T00:41:27.533Z,1021.21
2017-09-15T00:42:28.169Z,1021.09
2017-09-15T00:43:28.802Z,1021.10
2017-09-15T00:44:29.438Z,1021.02
2017-09-15T00:45:30.075Z,1021.04
2017-09-15T00:46:30.709Z,1021.05
2017-09-15T00:47:31.344Z,1021.07
2017-09-15T00:48:31.979Z,1021.08
2017-09-15T00:49:32.817Z,1020.96
2017-09-15T00:50:33.453Z,1021.01
2017-09-15T00:51:34.097Z,1021.03
2017-09-15T00:52:34.720Z,1020.99
2017-09-15T00:53:35.356Z,1021.05
2017-09-15T00:54:35.993Z,1021.03
2017-09-15T00:55:36.628Z,1020.99
2017-09-15T00:56:37.263Z,1021.06
2017-09-15T00:57:38.052Z,1020.97
2017-09-15T00:58:38.689Z,1020.99
2017-09-15T00:59:39.323Z,1021.07
2017-09-15T01:00:39.960Z,1020.94
2017-09-15T01:01:40.592Z,1020.99
2017-09-15T01:02:41.226Z,1020.95
2017-09-15T01:03:41.861Z,1020.97
2017-09-15T01:04:42.500Z,1021.03
2017-09-15T01:05:43.133Z,1021.01
2017-09-15T01:06:43.970Z,1020.88
2017-09-15T01:07:44.603Z,1021.01
2017-09-15T01:08:45.239Z,1020.89
2017-09-15T01:09:45.876Z,1020.96
2017-09-15T01:10:46.511Z,1020.95
2017-09-15T01:11:47.146Z,1020.98
2017-09-15T01:12:47.782Z,1020.95
2017-09-15T01:13:48.417Z,1020.98
2017-09-15T01:14:49.357Z,1021.01
2017-09-15T01:15:49.992Z,1021.03
2017-09-15T01:16:50.628Z,1021.05
2017-09-15T01:17:51.260Z,1021.05
2017-09-15T01:18:51.896Z,1021.11
2017-09-15T01:19:52.531Z,1021.08
2017-09-15T01:20:53.167Z,1021.10
2017-09-15T01:21:53.804Z,1021.11
2017-09-15T01:22:54.639Z,1021.10
2017-09-15T01:23:55.277Z,1021.04
2017-09-15T01:24:55.912Z,1021.09
2017-09-15T01:25:56.598Z,1021.14
2017-09-15T01:26:57.234Z,1021.14
2017-09-15T01:27:57.870Z,1021.17
2017-09-15T01:28:58.504Z,1021.16
2017-09-15T01:29:59.139Z,1021.17
2017-09-15T01:30:59.926Z,1021.13
2017-09-15T01:32:00.564Z,1021.13
2017-09-15T01:33:01.198Z,1021.17
2017-09-15T01:34:01.833Z,1021.08
2017-09-15T01:35:02.466Z,1021.13
2017-09-15T01:36:03.100Z,1021.07
2017-09-15T01:37:03.738Z,1021.07
2017-09-15T01:38:04.370Z,1021.08
2017-09-15T01:39:05.207Z,1021.13
2017-09-15T01:40:05.843Z,1021.02
2017-09-15T01:41:06.478Z,1021.11
2017-09-15T01:42:07.114Z,1021.04
2017-09-15T01:43:07.750Z,1021.10
2017-09-15T01:44:08.387Z,1021.10
2017-09-15T01:45:09.023Z,1021.04
2017-09-15T01:46:09.657Z,1021.04
2017-09-15T01:47:10.298Z,1020.97
2017-09-15T01:48:11.132Z,1021.11
2017-09-15T01:49:11.765Z,1020.90
2017-09-15T01:50:12.398Z,1021.01
2017-09-15T01:51:13.039Z,1020.97
2017-09-15T01:52:13.672Z,1020.92
2017-09-15T01:53:14.306Z,1020.89
2017-09-15T01:54:14.944Z,1020.89
2017-09-15T01:55:15.581Z,1020.91
2017-09-15T01:56:16.364Z,1020.97
2017-09-15T01:57:17.004Z,1020.89
2017-09-15T01:58:17.641Z,1020.89
2017-09-15T01:59:18.276Z,1020.88
2017-09-15T02:00:18.912Z,1020.82
2017-09-15T02:01:19.549Z,1020.78
2017-09-15T02:02:20.186Z,1020.83
2017-09-15T02:03:20.818Z,1020.86
2017-09-15T02:04:21.703Z,1020.83
2017-09-15T02:05:22.342Z,1020.86
2017-09-15T02:06:22.978Z,1020.82
2017-09-15T02:07:23.612Z,1020.84
2017-09-15T02:08:24.247Z,1020.90
2017-09-15T02:09:24.885Z,1020.80
2017-09-15T02:10:25.521Z,1020.81
2017-09-15T02:11:26.156Z,1020.88
2017-09-15T02:12:26.991Z,1020.87
2017-09-15T02:13:27.629Z,1020.90
2017-09-15T02:14:28.265Z,1020.80
2017-09-15T02:15:28.902Z,1020.84
2017-09-15T02:16:29.538Z,1020.84
2017-09-15T02:17:30.173Z,1020.88
2017-09-15T02:18:30.806Z,1020.80
2017-09-15T02:19:31.445Z,1020.81
2017-09-15T02:20:32.081Z,1020.81
2017-09-15T02:21:32.917Z,1020.81
2017-09-15T02:22:33.556Z,1020.83
2017-09-15T02:23:34.189Z,1020.91
2017-09-15T02:24:34.825Z,1020.84
2017-09-15T02:25:35.458Z,1020.73
2017-09-15T02:26:36.092Z,1020.81
2017-09-15T02:27:36.732Z,1020.75
2017-09-15T02:28:37.416Z,1020.74
2017-09-15T02:29:38.203Z,1020.70
2017-09-15T02:30:38.841Z,1020.75
2017-09-15T02:31:39.475Z,1020.70
2017-09-15T02:32:40.153Z,1020.75
2017-09-15T02:33:41.740Z,1020.68
2017-09-15T02:34:42.374Z,1020.73
2017-09-15T02:35:43.008Z,1020.83
2017-09-15T02:36:43.644Z,1020.72
2017-09-15T02:37:44.478Z,1020.76
2017-09-15T02:38:45.113Z,1020.77
2017-09-15T02:39:45.751Z,1020.76
2017-09-15T02:40:46.382Z,1020.80
2017-09-15T02:41:47.021Z,1020.67
2017-09-15T02:42:47.713Z,1020.74
2017-09-15T02:43:48.356Z,1020.67
2017-09-15T02:44:48.983Z,1020.72
2017-09-15T02:45:49.820Z,1020.71
2017-09-15T02:46:50.454Z,1020.68
2017-09-15T02:47:51.090Z,1020.65
2017-09-15T02:48:51.725Z,1020.69
2017-09-15T02:49:52.358Z,1020.68
2017-09-15T02:50:52.993Z,1020.68
2017-09-15T02:51:53.632Z,1020.63
2017-09-15T02:52:54.264Z,1020.78
2017-09-15T02:53:55.048Z,1020.78
2017-09-15T02:54:55.686Z,1020.76
2017-09-15T02:55:56.319Z,1020.77
2017-09-15T02:56:56.953Z,1020.73
2017-09-15T02:57:57.592Z,1020.71
2017-09-15T02:58:58.224Z,1020.76
2017-09-15T02:59:58.857Z,1020.80
2017-09-15T03:00:59.491Z,1020.70
2017-09-15T03:02:00.130Z,1020.69
2017-09-15T03:03:00.963Z,1020.63
2017-09-15T03:04:01.600Z,1020.68
2017-09-15T03:05:02.235Z,1020.71
2017-09-15T03:06:02.868Z,1020.72
2017-09-15T03:07:03.507Z,1020.69
2017-09-15T03:08:04.139Z,1020.73
2017-09-15T03:09:04.805Z,1020.74
2017-09-15T03:10:05.461Z,1020.78
2017-09-15T03:11:06.296Z,1020.75
2017-09-15T03:12:06.940Z,1020.77
2017-09-15T03:13:07.578Z,1020.72
2017-09-15T03:14:08.214Z,1020.76
2017-09-15T03:15:08.849Z,1020.81
2017-09-15T03:16:09.485Z,1020.76
2017-09-15T03:17:10.123Z,1020.80
2017-09-15T03:18:10.758Z,1020.69
2017-09-15T03:19:11.593Z,1020.71
2017-09-15T03:20:12.227Z,1020.70
2017-09-15T03:21:12.815Z,1020.78
2017-09-15T03:22:13.452Z,1020.73
2017-09-15T03:23:14.113Z,1020.69
2017-09-15T03:24:14.774Z,1020.74
2017-09-15T03:25:15.411Z,1020.71
2017-09-15T03:26:16.048Z,1020.73
2017-09-15T03:27:16.886Z,1020.76
2017-09-15T03:28:17.519Z,1020.84
2017-09-15T03:29:18.154Z,1020.81
2017-09-15T03:30:18.790Z,1020.69
2017-09-15T03:31:19.426Z,1020.79
2017-09-15T03:32:20.060Z,1020.73
2017-09-15T03:33:20.695Z,1020.73
2017-09-15T03:34:21.328Z,1020.81
2017-09-15T03:35:21.963Z,1020.72
2017-09-15T03:36:22.750Z,1020.77
2017-09-15T03:37:23.388Z,1020.71
2017-09-15T03:38:24.025Z,1020.77
2017-09-15T03:39:24.660Z,1020.78
2017-09-15T03:40:25.296Z,1020.75
2017-09-15T03:41:25.932Z,1020.79
2017-09-15T03:42:26.567Z,1020.79
2017-09-15T03:43:27.204Z,1020.80
2017-09-15T03:44:28.039Z,1020.71
2017-09-15T03:45:28.677Z,1020.70
2017-09-15T03:46:29.313Z,1020.69
2017-09-15T03:47:29.948Z,1020.64
2017-09-15T03:48:30.585Z,1020.69
2017-09-15T03:49:31.219Z,1020.68
2017-09-15T03:50:31.855Z,1020.69
2017-09-15T03:51:32.490Z,1020.70
2017-09-15T03:52:33.325Z,1020.71
2017-09-15T03:53:33.962Z,1020.65
2017-09-15T03:54:34.597Z,1020.69
2017-09-15T03:55:35.232Z,1020.66
2017-09-15T03:56:35.867Z,1020.65
2017-09-15T03:57:36.503Z,1020.70
2017-09-15T03:58:37.138Z,1020.65
2017-09-15T03:59:37.782Z,1020.72
2017-09-15T04:00:38.609Z,1020.74
2017-09-15T04:01:39.244Z,1020.75
2017-09-15T04:02:39.877Z,1020.74
2017-09-15T04:03:40.513Z,1020.74
2017-09-15T04:04:41.149Z,1020.67
2017-09-15T04:05:41.786Z,1020.67
2017-09-15T04:06:42.420Z,1020.71
2017-09-15T04:07:43.055Z,1020.77
2017-09-15T04:08:43.889Z,1020.72
2017-09-15T04:09:44.528Z,1020.79
2017-09-15T04:10:45.159Z,1020.67
2017-09-15T04:11:45.798Z,1020.74
2017-09-15T04:12:46.434Z,1020.69
2017-09-15T04:13:47.071Z,1020.70
2017-09-15T04:14:47.759Z,1020.63
2017-09-15T04:15:48.390Z,1020.67
2017-09-15T04:16:49.027Z,1020.66
2017-09-15T04:17:49.812Z,1020.74
2017-09-15T04:18:50.447Z,1020.75
2017-09-15T04:19:51.084Z,1020.74
2017-09-15T04:20:51.719Z,1020.74
2017-09-15T04:21:52.352Z,1020.63
2017-09-15T04:22:52.989Z,1020.61
2017-09-15T04:23:53.624Z,1020.66
2017-09-15T04:24:54.258Z,1020.59
2017-09-15T04:25:55.095Z,1020.59
2017-09-15T04:26:55.729Z,1020.64
2017-09-15T04:27:56.362Z,1020.59
2017-09-15T04:28:57.001Z,1020.47
2017-09-15T04:29:57.637Z,1020.57
2017-09-15T04:30:58.273Z,1020.56
2017-09-15T04:31:58.905Z,1020.58
2017-09-15T04:32:59.541Z,1020.50
2017-09-15T04:34:00.380Z,1020.61
2017-09-15T04:35:01.015Z,1020.56
2017-09-15T04:36:01.651Z,1020.49
2017-09-15T04:37:02.285Z,1020.49
2017-09-15T04:38:02.922Z,1020.52
2017-09-15T04:39:03.556Z,1020.58
2017-09-15T04:40:04.189Z,1020.58
2017-09-15T04:41:04.824Z,1020.49
2017-09-15T04:42:05.759Z,1020.50
2017-09-15T04:43:06.393Z,1020.48
2017-09-15T04:44:07.030Z,1020.53
2017-09-15T04:45:07.677Z,1020.55
2017-09-15T04:46:08.366Z,1020.53
2017-09-15T04:47:08.988Z,1020.53
2017-09-15T04:48:09.624Z,1020.67
2017-09-15T04:49:10.258Z,1020.55
2017-09-15T04:50:10.897Z,1020.61
2017-09-15T04:51:11.684Z,1020.61
2017-09-15T04:52:12.320Z,1020.60
2017-09-15T04:53:12.956Z,1020.48
2017-09-15T04:54:13.590Z,1020.66
2017-09-15T04:55:14.225Z,1020.61
2017-09-15T04:56:14.862Z,1020.64
2017-09-15T04:57:15.496Z,1020.60
2017-09-15T04:58:16.129Z,1020.59
2017-09-15T04:59:16.963Z,1020.61
2017-09-15T05:00:17.607Z,1020.61
2017-09-15T05:01:18.239Z,1020.70
2017-09-15T05:02:18.872Z,1020.66
2017-09-15T05:03:19.506Z,1020.60
2017-09-15T05:04:20.142Z,1020.61
2017-09-15T05:05:20.779Z,1020.56
2017-09-15T05:06:21.413Z,1020.57
2017-09-15T05:07:22.198Z,1020.64
2017-09-15T05:08:22.833Z,1020.58
2017-09-15T05:09:23.470Z,1020.56
2017-09-15T05:10:24.104Z,1020.53
2017-09-15T05:11:24.741Z,1020.62
2017-09-15T05:12:25.372Z,1020.62
2017-09-15T05:13:26.010Z,1020.59
2017-09-15T05:14:26.647Z,1020.64
2017-09-15T05:15:27.581Z,1020.67
2017-09-15T05:16:28.220Z,1020.66
2017-09-15T05:17:28.856Z,1020.67
2017-09-15T05:18:29.539Z,1020.61
2017-09-15T05:19:30.176Z,1020.65
2017-09-15T05:20:30.813Z,1020.69
2017-09-15T05:21:31.498Z,1020.66
2017-09-15T05:22:33.075Z,1020.70
2017-09-15T05:23:33.860Z,1020.77
2017-09-15T05:24:34.496Z,1020.71
2017-09-15T05:25:35.141Z,1020.71
2017-09-15T05:26:35.768Z,1020.71
2017-09-15T05:27:36.403Z,1020.71
2017-09-15T05:28:37.050Z,1020.75
2017-09-15T05:29:37.674Z,1020.66
2017-09-15T05:30:38.308Z,1020.82
2017-09-15T05:31:38.949Z,1020.75
2017-09-15T05:32:39.833Z,1020.70
2017-09-15T05:33:40.467Z,1020.76
2017-09-15T05:34:41.102Z,1020.77
2017-09-15T05:35:41.736Z,1020.75
2017-09-15T05:36:42.372Z,1020.74
2017-09-15T05:37:43.004Z,1020.75
2017-09-15T05:38:43.638Z,1020.82
2017-09-15T05:39:44.226Z,1020.80
2017-09-15T05:40:45.012Z,1020.84
2017-09-15T05:41:45.650Z,1020.79
2017-09-15T05:42:46.281Z,1020.86
2017-09-15T05:43:46.926Z,1020.79
2017-09-15T05:44:47.555Z,1020.81
2017-09-15T05:45:48.193Z,1020.83
2017-09-15T05:46:48.827Z,1020.80
2017-09-15T05:47:49.460Z,1020.78
2017-09-15T05:48:50.297Z,1020.78
2017-09-15T05:49:50.941Z,1020.86
2017-09-15T05:50:51.566Z,1020.82
2017-09-15T05:51:52.203Z,1020.90
2017-09-15T05:52:52.837Z,1020.89
2017-09-15T05:53:53.474Z,1020.91
2017-09-15T05:54:54.108Z,1020.98
2017-09-15T05:55:54.743Z,1020.92
2017-09-15T05:56:55.630Z,1020.94
2017-09-15T05:57:56.262Z,1020.84
2017-09-15T05:58:56.896Z,1020.93
2017-09-15T05:59:57.534Z,1020.96
2017-09-15T06:00:58.169Z,1020.91
2017-09-15T06:01:58.803Z,1020.96
2017-09-15T06:02:59.438Z,1020.96
2017-09-15T06:04:00.072Z,1020.98
2017-09-15T06:05:00.707Z,1020.97
2017-09-15T06:06:01.494Z,1020.99
2017-09-15T06:07:02.131Z,1020.98
2017-09-15T06:08:02.767Z,1020.98
2017-09-15T06:09:03.406Z,1020.99
2017-09-15T06:10:04.041Z,1021.05
2017-09-15T06:11:04.675Z,1021.00
2017-09-15T06:12:05.308Z,1021.06
2017-09-15T06:13:05.945Z,1021.04
2017-09-15T06:14:06.830Z,1020.99
2017-09-15T06:15:07.465Z,1020.98
2017-09-15T06:16:08.099Z,1021.06
2017-09-15T06:17:08.736Z,1021.02
2017-09-15T06:18:09.370Z,1021.05
2017-09-15T06:19:10.007Z,1021.04
2017-09-15T06:20:10.642Z,1021.03
2017-09-15T06:21:11.279Z,1021.17
2017-09-15T06:22:12.113Z,1021.06
2017-09-15T06:23:12.746Z,1021.05
2017-09-15T06:24:13.383Z,1021.09
2017-09-15T06:25:14.017Z,1021.08
2017-09-15T06:26:14.653Z,1021.09
2017-09-15T06:27:15.286Z,1021.11
2017-09-15T06:28:15.921Z,1021.12
2017-09-15T06:29:16.557Z,1021.03
2017-09-15T06:30:17.391Z,1021.07
2017-09-15T06:31:18.066Z,1021.11
2017-09-15T06:32:18.709Z,1021.10
2017-09-15T06:33:19.342Z,1021.14
2017-09-15T06:34:19.978Z,1021.08
2017-09-15T06:35:20.616Z,1021.14
2017-09-15T06:36:21.198Z,1021.10
2017-09-15T06:37:21.785Z,1021.30
2017-09-15T06:38:22.620Z,1021.15
2017-09-15T06:39:23.259Z,1021.24
2017-09-15T06:40:23.893Z,1021.20
2017-09-15T06:41:24.580Z,1021.18
2017-09-15T06:42:25.213Z,1021.23
2017-09-15T06:43:25.847Z,1021.20
2017-09-15T06:44:26.484Z,1021.21
2017-09-15T06:45:27.121Z,1021.22
2017-09-15T06:46:27.755Z,1021.20
2017-09-15T06:47:28.691Z,1021.20
2017-09-15T06:48:29.326Z,1021.25
2017-09-15T06:49:29.963Z,1021.31
2017-09-15T06:50:30.594Z,1021.32
2017-09-15T06:51:31.231Z,1021.22
2017-09-15T06:52:31.864Z,1021.30
2017-09-15T06:53:32.499Z,1021.29
2017-09-15T06:54:33.133Z,1021.29
2017-09-15T06:55:34.119Z,1021.22
2017-09-15T06:56:34.755Z,1021.23
2017-09-15T06:57:35.389Z,1021.27
2017-09-15T06:58:36.026Z,1021.31
2017-09-15T06:59:36.658Z,1021.26
2017-09-15T07:00:37.291Z,1021.38
2017-09-15T07:01:37.930Z,1021.35
2017-09-15T07:02:38.561Z,1021.33
2017-09-15T07:03:39.499Z,1021.33
2017-09-15T07:04:40.133Z,1021.45
2017-09-15T07:05:40.771Z,1021.30
2017-09-15T07:06:41.406Z,1021.39
2017-09-15T07:07:42.041Z,1021.38
2017-09-15T07:08:42.678Z,1021.42
2017-09-15T07:09:43.311Z,1021.45
2017-09-15T07:10:43.949Z,1021.42
2017-09-15T07:11:44.783Z,1021.36
2017-09-15T07:12:45.417Z,1021.38
2017-09-15T07:13:46.002Z,1021.33
2017-09-15T07:14:46.638Z,1021.46
2017-09-15T07:15:47.273Z,1021.43
2017-09-15T07:16:47.912Z,1021.48
2017-09-15T07:17:48.544Z,1021.37
2017-09-15T07:18:49.178Z,1021.49
2017-09-15T07:19:49.816Z,1021.46
2017-09-15T07:20:50.651Z,1021.48
2017-09-15T07:21:51.287Z,1021.43
2017-09-15T07:22:51.921Z,1021.49
2017-09-15T07:23:52.559Z,1021.51
2017-09-15T07:24:53.194Z,1021.55
2017-09-15T07:25:53.826Z,1021.47
2017-09-15T07:26:54.458Z,1021.54
2017-09-15T07:27:55.095Z,1021.49
2017-09-15T07:28:56.031Z,1021.49
2017-09-15T07:29:56.663Z,1021.54
2017-09-15T07:30:57.297Z,1021.49
2017-09-15T07:31:57.933Z,1021.53
2017-09-15T07:32:58.567Z,1021.52
2017-09-15T07:33:59.200Z,1021.56
2017-09-15T07:34:59.788Z,1021.48
2017-09-15T07:36:00.421Z,1021.54
2017-09-15T07:37:01.257Z,1021.57
2017-09-15T07:38:01.892Z,1021.55
2017-09-15T07:39:02.527Z,1021.61
2017-09-15T07:40:03.162Z,1021.57
2017-09-15T07:41:03.795Z,1021.56
2017-09-15T07:42:04.434Z,1021.53
2017-09-15T07:43:05.066Z,1021.51
2017-09-15T07:44:05.701Z,1021.53
2017-09-15T07:45:06.484Z,1021.53
2017-09-15T07:46:07.118Z,1021.54
2017-09-15T07:47:07.754Z,1021.57
2017-09-15T07:48:08.393Z,1021.59
2017-09-15T07:49:09.029Z,1021.57
2017-09-15T07:50:09.665Z,1021.52
2017-09-15T07:51:10.303Z,1021.57
2017-09-15T07:52:10.936Z,1021.57
2017-09-15T07:53:11.775Z,1021.57
2017-09-15T07:54:12.414Z,1021.56
2017-09-15T07:55:13.048Z,1021.60
2017-09-15T07:56:13.721Z,1021.65
2017-09-15T07:57:14.322Z,1021.66
2017-09-15T07:58:14.957Z,1021.64
2017-09-15T07:59:15.594Z,1021.59
2017-09-15T08:00:16.228Z,1021.66
2017-09-15T08:01:16.865Z,1021.72
2017-09-15T08:02:17.648Z,1021.67
2017-09-15T08:03:18.288Z,1021.68
2017-09-15T08:04:18.975Z,1021.68
2017-09-15T08:05:19.613Z,1021.76
2017-09-15T08:06:20.247Z,1021.72
2017-09-15T08:07:20.885Z,1021.74
2017-09-15T08:08:21.521Z,1021.81
2017-09-15T08:09:22.159Z,1021.87
2017-09-15T08:10:22.992Z,1021.85
2017-09-15T08:11:23.635Z,1021.83
2017-09-15T08:12:24.270Z,1021.83
2017-09-15T08:13:24.958Z,1021.85
2017-09-15T08:14:25.595Z,1021.89
2017-09-15T08:15:26.233Z,1021.85
2017-09-15T08:16:26.867Z,1021.92
2017-09-15T08:17:27.500Z,1021.93
2017-09-15T08:18:28.340Z,1021.89
2017-09-15T08:19:28.974Z,1021.91
2017-09-15T08:20:29.611Z,1021.87
2017-09-15T08:21:30.248Z,1021.87
2017-09-15T08:22:30.884Z,1021.86
2017-09-15T08:23:31.521Z,1021.86
2017-09-15T08:24:32.209Z,1021.84
2017-09-15T08:25:32.843Z,1021.84
2017-09-15T08:26:33.629Z,1021.94
2017-09-15T08:27:34.266Z,1021.84
2017-09-15T08:28:34.900Z,1021.86
2017-09-15T08:29:35.586Z,1021.92
2017-09-15T08:30:36.226Z,1021.81
2017-09-15T08:31:36.862Z,1021.88
2017-09-15T08:32:37.496Z,1021.90
2017-09-15T08:33:38.133Z,1021.93
2017-09-15T08:34:38.770Z,1021.88
2017-09-15T08:35:39.607Z,1021.86
2017-09-15T08:36:40.242Z,1021.88
2017-09-15T08:37:40.878Z,1021.87
2017-09-15T08:38:41.514Z,1021.95
2017-09-15T08:39:42.153Z,1021.93
2017-09-15T08:40:42.784Z,1021.90
2017-09-15T08:41:43.422Z,1021.96
2017-09-15T08:42:44.111Z,1021.95
2017-09-15T08:43:44.948Z,1021.93
2017-09-15T08:44:45.581Z,1021.97
2017-09-15T08:45:46.218Z,1021.95
2017-09-15T08:46:46.853Z,1021.92
2017-09-15T08:47:47.489Z,1021.94
2017-09-15T08:48:48.125Z,1021.98
2017-09-15T08:49:48.762Z,1021.98
2017-09-15T08:50:49.396Z,1021.99
2017-09-15T08:51:50.185Z,1022.01
2017-09-15T08:52:50.822Z,1022.02
2017-09-15T08:53:55.859Z,1021.95
2017-09-15T08:54:56.494Z,1021.97
2017-09-15T08:55:57.133Z,1022.00
2017-09-15T08:56:57.769Z,1021.95
2017-09-15T08:57:58.406Z,1021.95
2017-09-15T08:58:59.040Z,1021.99
2017-09-15T08:59:59.881Z,1022.10
2017-09-15T09:01:00.513Z,1022.04
2017-09-15T09:02:01.150Z,1021.99
2017-09-15T09:03:01.784Z,1022.01
2017-09-15T09:04:02.424Z,1021.96
2017-09-15T09:05:03.058Z,1021.94
2017-09-15T09:06:03.692Z,1021.99
2017-09-15T09:07:04.329Z,1022.01
2017-09-15T09:08:05.118Z,1021.96
2017-09-15T09:09:05.754Z,1022.01
2017-09-15T09:10:06.390Z,1021.97
2017-09-15T09:11:07.027Z,1021.99
2017-09-15T09:12:07.664Z,1021.98
2017-09-15T09:13:08.301Z,1021.98
2017-09-15T09:14:08.935Z,1021.93
2017-09-15T09:15:09.610Z,1021.96
2017-09-15T09:16:10.254Z,1022.00
2017-09-15T09:17:11.091Z,1022.05
2017-09-15T09:18:11.727Z,1022.00
2017-09-15T09:19:12.365Z,1021.96
2017-09-15T09:20:13.002Z,1021.97
2017-09-15T09:21:13.637Z,1021.97
2017-09-15T09:22:14.272Z,1021.99
2017-09-15T09:23:14.906Z,1021.99
2017-09-15T09:24:15.544Z,1021.95
2017-09-15T09:25:16.378Z,1022.00
2017-09-15T09:26:17.015Z,1021.98
2017-09-15T09:27:17.654Z,1021.94
2017-09-15T09:28:18.292Z,1021.98
2017-09-15T09:29:18.928Z,1022.04
2017-09-15T09:30:19.561Z,1022.01
2017-09-15T09:31:20.194Z,1021.90
2017-09-15T09:32:20.834Z,1022.03
2017-09-15T09:33:21.720Z,1022.06
2017-09-15T09:34:22.306Z,1022.08
2017-09-15T09:35:22.943Z,1022.06
2017-09-15T09:36:23.602Z,1022.04
2017-09-15T09:37:24.214Z,1022.05
2017-09-15T09:38:24.848Z,1021.99
2017-09-15T09:39:25.482Z,1022.04
2017-09-15T09:40:26.118Z,1022.02
2017-09-15T09:41:26.956Z,1022.05
2017-09-15T09:42:27.593Z,1022.09
2017-09-15T09:43:28.237Z,1022.04
2017-09-15T09:44:28.863Z,1021.99
2017-09-15T09:45:29.512Z,1022.00
2017-09-15T09:46:30.137Z,1022.01
2017-09-15T09:47:30.770Z,1021.97
2017-09-15T09:48:31.407Z,1021.96
2017-09-15T09:49:32.044Z,1022.01
2017-09-15T09:50:32.829Z,1021.90
2017-09-15T09:51:33.465Z,1021.95
2017-09-15T09:52:34.152Z,1021.86
2017-09-15T09:53:34.787Z,1021.90
2017-09-15T09:54:35.420Z,1021.87
2017-09-15T09:55:36.058Z,1021.84
2017-09-15T09:56:36.693Z,1021.76
2017-09-15T09:57:37.333Z,1021.80
2017-09-15T09:58:38.164Z,1021.85
2017-09-15T09:59:38.798Z,1021.84
2017-09-15T10:00:39.434Z,1021.80
2017-09-15T10:01:40.069Z,1021.79
2017-09-15T10:02:40.710Z,1021.79
2017-09-15T10:03:41.344Z,1021.82
2017-09-15T10:04:41.980Z,1021.77
2017-09-15T10:05:42.613Z,1021.73
2017-09-15T10:06:43.507Z,1021.73
2017-09-15T10:07:44.139Z,1021.69
2017-09-15T10:08:44.777Z,1021.69
2017-09-15T10:09:45.409Z,1021.62
2017-09-15T10:10:46.047Z,1021.63
2017-09-15T10:11:46.681Z,1021.64
2017-09-15T10:12:47.316Z,1021.62
2017-09-15T10:13:47.951Z,1021.67
2017-09-15T10:14:48.739Z,1021.61
2017-09-15T10:15:49.371Z,1021.64
2017-09-15T10:16:50.015Z,1021.56
2017-09-15T10:17:50.694Z,1021.67
2017-09-15T10:18:51.354Z,1021.66
2017-09-15T10:19:52.020Z,1021.59
2017-09-15T10:20:52.654Z,1021.61
2017-09-15T10:21:53.288Z,1021.57
2017-09-15T10:22:54.126Z,1021.57
2017-09-15T10:23:54.762Z,1021.58
2017-09-15T10:24:55.399Z,1021.58
2017-09-15T10:25:56.036Z,1021.51
2017-09-15T10:26:56.698Z,1021.59
2017-09-15T10:27:57.360Z,1021.48
2017-09-15T10:28:57.996Z,1021.51
2017-09-15T10:29:58.631Z,1021.54
2017-09-15T10:30:59.270Z,1021.48
2017-09-15T10:32:00.106Z,1021.51
2017-09-15T10:33:00.743Z,1021.50
2017-09-15T10:34:01.377Z,1021.47
2017-09-15T10:35:02.015Z,1021.47
2017-09-15T10:36:02.653Z,1021.41
2017-09-15T10:37:03.292Z,1021.48
2017-09-15T10:38:03.923Z,1021.44
2017-09-15T10:39:04.563Z,1021.49
2017-09-15T10:40:05.399Z,1021.47
2017-09-15T10:41:06.035Z,1021.48
2017-09-15T10:42:06.723Z,1021.48
2017-09-15T10:43:07.359Z,1021.48
2017-09-15T10:44:07.993Z,1021.42
2017-09-15T10:45:08.629Z,1021.47
2017-09-15T10:46:09.266Z,1021.43
2017-09-15T10:47:09.904Z,1021.54
2017-09-15T10:48:10.738Z,1021.53
2017-09-15T10:49:11.375Z,1021.47
2017-09-15T10:50:12.014Z,1021.41
2017-09-15T10:51:12.650Z,1021.50
2017-09-15T10:52:13.287Z,1021.44
2017-09-15T10:53:13.928Z,1021.33
2017-09-15T10:54:14.561Z,1021.38
2017-09-15T10:55:15.194Z,1021.44
2017-09-15T10:56:16.034Z,1021.40
2017-09-15T10:57:16.670Z,1021.34
2017-09-15T10:58:17.308Z,1021.46
2017-09-15T10:59:17.945Z,1021.45
2017-09-15T11:00:18.580Z,1021.40
2017-09-15T11:01:19.422Z,1021.48
2017-09-15T11:02:20.057Z,1021.43
2017-09-15T11:03:20.690Z,1021.49
2017-09-15T11:04:21.331Z,1021.43
2017-09-15T11:05:22.166Z,1021.37
2017-09-15T11:06:22.805Z,1021.46
2017-09-15T11:07:23.488Z,1021.46
2017-09-15T11:08:24.128Z,1021.44
2017-09-15T11:09:24.764Z,1021.43
2017-09-15T11:10:25.402Z,1021.34
2017-09-15T11:11:26.041Z,1021.38
2017-09-15T11:12:26.675Z,1021.33
2017-09-15T11:13:27.515Z,1021.31
2017-09-15T11:14:28.152Z,1021.29
2017-09-15T11:15:28.792Z,1021.30
2017-09-15T11:16:29.426Z,1021.31
2017-09-15T11:17:30.067Z,1021.26
2017-09-15T11:18:30.701Z,1021.28
2017-09-15T11:19:31.335Z,1021.30
2017-09-15T11:20:31.970Z,1021.25
2017-09-15T11:21:32.810Z,1021.28
2017-09-15T11:22:33.453Z,1021.26
2017-09-15T11:23:34.081Z,1021.28
2017-09-15T11:24:34.721Z,1021.22
2017-09-15T11:25:35.358Z,1021.22
2017-09-15T11:26:35.994Z,1021.20
2017-09-15T11:27:36.631Z,1021.27
2017-09-15T11:28:37.265Z,1021.25
2017-09-15T11:29:38.054Z,1021.29
2017-09-15T11:30:38.697Z,1021.19
2017-09-15T11:31:39.333Z,1021.24
2017-09-15T11:32:39.973Z,1021.16
2017-09-15T11:33:40.607Z,1021.18
2017-09-15T11:34:41.242Z,1021.28
2017-09-15T11:35:41.877Z,1021.17
2017-09-15T11:36:42.514Z,1021.13
2017-09-15T11:37:43.400Z,1021.15
2017-09-15T11:38:44.037Z,1021.17
2017-09-15T11:39:44.672Z,1021.16
2017-09-15T11:40:45.312Z,1021.17
2017-09-15T11:41:45.947Z,1021.11
2017-09-15T11:42:46.586Z,1021.10
2017-09-15T11:43:47.223Z,1021.12
2017-09-15T11:44:47.861Z,1021.06
2017-09-15T11:45:48.503Z,1021.10
2017-09-15T11:46:49.488Z,1021.15
2017-09-15T11:47:50.124Z,1021.13
2017-09-15T11:48:50.759Z,1021.08
2017-09-15T11:49:51.398Z,1021.01
2017-09-15T11:50:52.046Z,1021.06
2017-09-15T11:51:52.685Z,1020.98
2017-09-15T11:52:53.317Z,1021.10
2017-09-15T11:53:53.955Z,1021.11
2017-09-15T11:54:54.733Z,1020.97
2017-09-15T11:55:55.368Z,1021.09
2017-09-15T11:56:56.005Z,1021.04
2017-09-15T11:57:56.642Z,1021.09
2017-09-15T11:58:57.279Z,1021.03
2017-09-15T11:59:57.865Z,1020.99
2017-09-15T12:00:58.504Z,1021.02
2017-09-15T12:01:59.143Z,1021.01
2017-09-15T12:02:59.979Z,1020.96
2017-09-15T12:04:00.663Z,1020.92
2017-09-15T12:05:02.241Z,1020.93
2017-09-15T12:06:02.884Z,1020.79
2017-09-15T12:07:03.517Z,1020.98
2017-09-15T12:08:04.152Z,1020.92
2017-09-15T12:09:04.793Z,1020.98
2017-09-15T12:10:05.482Z,1021.03
2017-09-15T12:11:06.320Z,1021.02
2017-09-15T12:12:06.954Z,1020.98
2017-09-15T12:13:07.592Z,1020.97